createdAt,value
2018-08-28T00:00:35.068Z,15.50
2018-08-28T00:01:40.524Z,15.50
2018-08-28T00:02:45.942Z,15.50
2018-08-28T00:03:52.274Z,15.60
2018-08-28T00:04:58.028Z,15.50
2018-08-28T00:06:03.692Z,15.50
2018-08-28T00:07:09.153Z,15.50
2018-08-28T00:08:14.664Z,15.60
2018-08-28T00:09:20.128Z,15.60
2018-08-28T00:10:25.626Z,15.70
2018-08-28T00:11:31.065Z,15.50
2018-08-28T00:12:36.889Z,15.60
2018-08-28T00:13:42.438Z,15.60
2018-08-28T00:14:47.981Z,15.50
2018-08-28T00:15:53.464Z,15.50
2018-08-28T00:16:59.177Z,15.50
2018-08-28T00:18:04.609Z,15.60
2018-08-28T00:19:10.037Z,15.50
2018-08-28T00:20:15.502Z,15.70
2018-08-28T00:21:20.942Z,15.60
2018-08-28T00:22:26.374Z,15.70
2018-08-28T00:23:31.825Z,15.50
2018-08-28T00:24:37.228Z,15.60
2018-08-28T00:25:42.634Z,15.60
2018-08-28T00:26:48.125Z,15.60
2018-08-28T00:27:53.613Z,15.60
2018-08-28T00:28:59.079Z,15.50
2018-08-28T00:30:04.630Z,15.50
2018-08-28T00:31:10.120Z,15.50
2018-08-28T00:32:15.548Z,15.50
2018-08-28T00:33:20.986Z,15.60
2018-08-28T00:34:26.409Z,15.50
2018-08-28T00:35:31.973Z,15.50
2018-08-28T00:36:37.411Z,15.50
2018-08-28T00:37:42.850Z,15.50
2018-08-28T00:38:48.278Z,15.50
2018-08-28T00:39:53.713Z,15.50
2018-08-28T00:40:59.221Z,15.50
2018-08-28T00:42:04.696Z,15.50
2018-08-28T00:43:10.104Z,15.50
2018-08-28T00:44:15.576Z,15.50
2018-08-28T00:45:20.992Z,15.50
2018-08-28T00:46:26.523Z,15.40
2018-08-28T00:47:31.919Z,15.50
2018-08-28T00:48:37.537Z,15.50
2018-08-28T00:49:43.268Z,15.50
2018-08-28T00:50:48.750Z,15.50
2018-08-28T00:51:54.300Z,15.40
2018-08-28T00:52:59.736Z,15.50
2018-08-28T00:54:05.232Z,15.50
2018-08-28T00:55:10.722Z,15.40
2018-08-28T00:56:16.107Z,15.50
2018-08-28T00:57:21.679Z,15.50
2018-08-28T00:58:27.150Z,15.50
2018-08-28T00:59:32.625Z,15.50
2018-08-28T01:00:38.028Z,15.50
2018-08-28T01:01:43.480Z,15.50
2018-08-28T01:02:48.952Z,15.50
2018-08-28T01:03:54.372Z,15.50
2018-08-28T01:04:59.953Z,15.50
2018-08-28T01:06:05.769Z,15.50
2018-08-28T01:07:11.351Z,15.50
2018-08-28T01:08:16.816Z,15.50
2018-08-28T01:09:22.254Z,15.50
2018-08-28T01:10:27.668Z,15.50
2018-08-28T01:11:33.136Z,15.50
2018-08-28T01:12:38.533Z,15.50
2018-08-28T01:13:43.921Z,15.50
2018-08-28T01:14:49.455Z,15.50
2018-08-28T01:15:54.800Z,15.50
2018-08-28T01:17:00.549Z,15.50
2018-08-28T01:18:06.696Z,15.50
2018-08-28T01:19:12.196Z,15.50
2018-08-28T01:20:17.638Z,15.50
2018-08-28T01:21:23.094Z,15.50
2018-08-28T01:22:28.688Z,15.50
2018-08-28T01:23:34.399Z,15.50
2018-08-28T01:24:39.930Z,15.50
2018-08-28T01:25:45.508Z,15.60
2018-08-28T01:26:51.172Z,15.40
2018-08-28T01:27:56.729Z,15.50
2018-08-28T01:29:02.144Z,15.50
2018-08-28T01:30:07.680Z,15.60
2018-08-28T01:31:13.098Z,15.50
2018-08-28T01:32:18.524Z,15.50
2018-08-28T01:33:24.005Z,15.50
2018-08-28T01:34:29.464Z,15.50
2018-08-28T01:35:35.463Z,15.50
2018-08-28T01:36:41.085Z,15.40
2018-08-28T01:37:46.568Z,15.50
2018-08-28T01:38:52.073Z,15.50
2018-08-28T01:39:57.533Z,15.50
2018-08-28T01:41:02.930Z,15.50
2018-08-28T01:42:08.456Z,15.50
2018-08-28T01:43:19.025Z,15.40
2018-08-28T01:44:24.444Z,15.50
2018-08-28T01:45:30.257Z,15.40
2018-08-28T01:46:35.656Z,15.50
2018-08-28T01:47:41.496Z,15.50
2018-08-28T01:48:46.978Z,15.50
2018-08-28T01:49:52.618Z,15.50
2018-08-28T01:50:58.113Z,15.40
2018-08-28T01:52:03.525Z,15.40
2018-08-28T01:53:09.029Z,15.40
2018-08-28T01:54:14.856Z,15.40
2018-08-28T01:55:20.369Z,15.40
2018-08-28T01:56:25.902Z,15.40
2018-08-28T01:57:31.498Z,15.40
2018-08-28T01:58:36.976Z,15.50
2018-08-28T01:59:42.485Z,15.40
2018-08-28T02:00:47.876Z,15.40
2018-08-28T02:01:53.281Z,15.50
2018-08-28T02:02:58.692Z,15.50
2018-08-28T02:04:04.090Z,15.40
2018-08-28T02:05:09.733Z,15.40
2018-08-28T02:06:15.153Z,15.50
2018-08-28T02:07:20.570Z,15.40
2018-08-28T02:08:26.008Z,15.50
2018-08-28T02:09:31.458Z,15.40
2018-08-28T02:10:36.961Z,15.50
2018-08-28T02:11:42.388Z,15.40
2018-08-28T02:12:47.792Z,15.40
2018-08-28T02:13:53.213Z,15.40
2018-08-28T02:14:58.686Z,15.50
2018-08-28T02:16:04.222Z,15.40
2018-08-28T02:17:09.652Z,15.40
2018-08-28T02:18:15.037Z,15.50
2018-08-28T02:19:20.461Z,15.40
2018-08-28T02:20:25.937Z,15.40
2018-08-28T02:21:31.333Z,15.50
2018-08-28T02:22:36.856Z,15.50
2018-08-28T02:23:42.282Z,15.50
2018-08-28T02:24:47.747Z,15.50
2018-08-28T02:25:53.238Z,15.50
2018-08-28T02:26:58.832Z,15.50
2018-08-28T02:28:04.226Z,15.40
2018-08-28T02:29:09.645Z,15.40
2018-08-28T02:30:15.035Z,15.50
2018-08-28T02:31:20.560Z,15.50
2018-08-28T02:32:25.996Z,15.40
2018-08-28T02:33:31.489Z,15.40
2018-08-28T02:34:36.858Z,15.40
2018-08-28T02:35:42.256Z,15.50
2018-08-28T02:36:47.732Z,15.50
2018-08-28T02:37:53.190Z,15.50
2018-08-28T02:38:58.608Z,15.50
2018-08-28T02:40:04.053Z,15.60
2018-08-28T02:41:09.536Z,15.50
2018-08-28T02:42:15.005Z,15.50
2018-08-28T02:43:20.481Z,15.50
2018-08-28T02:44:25.913Z,15.50
2018-08-28T02:45:31.307Z,15.50
2018-08-28T02:46:37.214Z,15.50
2018-08-28T02:47:42.662Z,15.50
2018-08-28T02:48:48.122Z,15.50
2018-08-28T02:49:53.623Z,15.50
2018-08-28T02:50:59.029Z,15.60
2018-08-28T02:52:04.476Z,15.50
2018-08-28T02:53:09.964Z,15.60
2018-08-28T02:54:15.431Z,15.70
2018-08-28T02:55:20.942Z,15.60
2018-08-28T02:56:26.712Z,15.60
2018-08-28T02:57:32.279Z,15.50
2018-08-28T02:58:37.673Z,15.50
2018-08-28T02:59:43.084Z,15.50
2018-08-28T03:00:48.493Z,15.50
2018-08-28T03:01:54.085Z,15.50
2018-08-28T03:02:59.526Z,15.50
2018-08-28T03:04:05.152Z,15.50
2018-08-28T03:05:10.617Z,15.50
2018-08-28T03:06:16.126Z,15.50
2018-08-28T03:07:21.593Z,15.50
2018-08-28T03:08:27.038Z,15.40
2018-08-28T03:09:32.827Z,15.40
2018-08-28T03:10:38.289Z,15.40
2018-08-28T03:11:43.743Z,15.50
2018-08-28T03:12:49.152Z,15.50
2018-08-28T03:13:54.518Z,15.40
2018-08-28T03:14:59.981Z,15.40
2018-08-28T03:16:05.677Z,15.40
2018-08-28T03:17:11.080Z,15.40
2018-08-28T03:18:16.541Z,15.40
2018-08-28T03:19:21.976Z,15.40
2018-08-28T03:20:27.545Z,15.40
2018-08-28T03:21:33.357Z,15.50
2018-08-28T03:22:38.757Z,15.40
2018-08-28T03:23:44.329Z,15.40
2018-08-28T03:24:49.810Z,15.40
2018-08-28T03:25:55.247Z,15.40
2018-08-28T03:27:00.942Z,15.40
2018-08-28T03:28:06.406Z,15.40
2018-08-28T03:29:11.880Z,15.30
2018-08-28T03:30:17.345Z,15.40
2018-08-28T03:31:22.761Z,15.40
2018-08-28T03:32:28.209Z,15.30
2018-08-28T03:33:33.654Z,15.30
2018-08-28T03:34:39.100Z,15.30
2018-08-28T03:35:44.614Z,15.30
2018-08-28T03:36:50.057Z,15.30
2018-08-28T03:37:55.989Z,15.20
2018-08-28T03:39:01.493Z,15.20
2018-08-28T03:40:07.496Z,15.20
2018-08-28T03:41:13.057Z,15.20
2018-08-28T03:42:18.582Z,15.10
2018-08-28T03:43:23.975Z,15.20
2018-08-28T03:46:08.470Z,15.10
2018-08-28T03:47:13.893Z,15.10
2018-08-28T03:48:19.329Z,15.10
2018-08-28T03:49:24.885Z,15.10
2018-08-28T03:50:30.313Z,15.00
2018-08-28T03:51:35.794Z,15.00
2018-08-28T03:52:41.241Z,15.00
2018-08-28T03:53:46.716Z,15.00
2018-08-28T03:54:52.224Z,15.00
2018-08-28T03:55:57.674Z,14.90
2018-08-28T03:57:03.108Z,15.00
2018-08-28T03:58:08.521Z,15.00
2018-08-28T03:59:13.948Z,14.90
2018-08-28T04:00:19.448Z,14.90
2018-08-28T04:01:24.939Z,15.00
2018-08-28T04:02:30.395Z,15.00
2018-08-28T04:03:35.960Z,15.10
2018-08-28T04:04:41.496Z,15.00
2018-08-28T04:05:46.944Z,15.00
2018-08-28T04:06:52.558Z,15.10
2018-08-28T04:07:58.179Z,15.10
2018-08-28T04:09:03.709Z,15.00
2018-08-28T04:10:09.156Z,15.00
2018-08-28T04:11:14.614Z,15.00
2018-08-28T04:12:20.122Z,15.10
2018-08-28T04:13:25.612Z,15.00
2018-08-28T04:14:31.145Z,15.00
2018-08-28T04:15:36.789Z,15.00
2018-08-28T04:16:42.220Z,15.20
2018-08-28T04:17:51.449Z,15.10
2018-08-28T04:18:56.976Z,15.10
2018-08-28T04:20:02.422Z,15.10
2018-08-28T04:21:07.858Z,15.10
2018-08-28T04:22:13.344Z,15.10
2018-08-28T04:23:19.064Z,15.10
2018-08-28T04:24:24.493Z,15.10
2018-08-28T04:25:29.938Z,15.10
2018-08-28T04:26:35.595Z,15.10
2018-08-28T04:27:41.064Z,15.10
2018-08-28T04:28:46.480Z,15.10
2018-08-28T04:29:51.982Z,15.10
2018-08-28T04:30:57.535Z,15.20
2018-08-28T04:32:03.006Z,15.10
2018-08-28T04:33:08.386Z,15.10
2018-08-28T04:34:13.838Z,15.10
2018-08-28T04:35:19.489Z,15.10
2018-08-28T04:36:25.067Z,15.10
2018-08-28T04:37:30.541Z,15.10
2018-08-28T04:38:36.167Z,15.10
2018-08-28T04:39:41.630Z,15.10
2018-08-28T04:40:47.066Z,15.10
2018-08-28T04:41:52.532Z,15.10
2018-08-28T04:42:57.930Z,15.10
2018-08-28T04:44:03.405Z,15.10
2018-08-28T04:45:08.932Z,15.10
2018-08-28T04:46:14.390Z,15.10
2018-08-28T04:47:19.825Z,15.20
2018-08-28T04:48:25.342Z,15.20
2018-08-28T04:49:30.769Z,15.10
2018-08-28T04:50:36.222Z,15.00
2018-08-28T04:51:42.148Z,15.20
2018-08-28T04:52:47.558Z,15.10
2018-08-28T04:53:52.988Z,15.10
2018-08-28T04:54:58.571Z,15.10
2018-08-28T04:56:03.985Z,15.10
2018-08-28T04:57:09.829Z,15.10
2018-08-28T04:58:15.241Z,15.20
2018-08-28T04:59:20.671Z,15.20
2018-08-28T05:00:26.149Z,15.20
2018-08-28T05:01:31.609Z,15.20
2018-08-28T05:02:38.006Z,15.20
2018-08-28T05:03:43.432Z,15.20
2018-08-28T05:04:48.928Z,15.20
2018-08-28T05:05:54.368Z,15.20
2018-08-28T05:06:59.833Z,15.20
2018-08-28T05:08:05.365Z,15.20
2018-08-28T05:09:10.843Z,15.30
2018-08-28T05:10:16.361Z,15.20
2018-08-28T05:11:22.353Z,15.30
2018-08-28T05:12:27.889Z,15.30
2018-08-28T05:13:33.337Z,15.30
2018-08-28T05:14:38.770Z,15.40
2018-08-28T05:15:44.250Z,15.40
2018-08-28T05:16:49.677Z,15.40
2018-08-28T05:17:55.099Z,15.40
2018-08-28T05:19:00.519Z,15.40
2018-08-28T05:20:06.337Z,15.40
2018-08-28T05:21:11.833Z,15.40
2018-08-28T05:22:17.736Z,15.40
2018-08-28T05:23:23.113Z,15.40
2018-08-28T05:24:28.529Z,15.40
2018-08-28T05:25:33.955Z,15.30
2018-08-28T05:26:39.397Z,15.50
2018-08-28T05:27:44.965Z,15.40
2018-08-28T05:28:50.339Z,15.50
2018-08-28T05:29:55.828Z,15.40
2018-08-28T05:31:01.251Z,15.50
2018-08-28T05:32:06.801Z,15.50
2018-08-28T05:33:12.390Z,15.50
2018-08-28T05:34:17.836Z,15.50
2018-08-28T05:35:23.273Z,15.50
2018-08-28T05:36:28.709Z,15.50
2018-08-28T05:37:34.469Z,15.60
2018-08-28T05:38:39.956Z,15.50
2018-08-28T05:39:45.884Z,15.60
2018-08-28T05:40:51.340Z,15.60
2018-08-28T05:41:56.742Z,15.60
2018-08-28T05:43:02.166Z,15.60
2018-08-28T05:44:07.656Z,15.70
2018-08-28T05:45:13.167Z,15.60
2018-08-28T05:46:18.749Z,15.70
2018-08-28T05:47:24.293Z,15.60
2018-08-28T05:48:29.706Z,15.80
2018-08-28T05:49:35.246Z,15.70
2018-08-28T05:50:40.725Z,15.70
2018-08-28T05:51:46.445Z,15.90
2018-08-28T05:52:51.905Z,15.80
2018-08-28T05:53:57.542Z,15.90
2018-08-28T05:55:03.044Z,15.90
2018-08-28T05:56:10.034Z,15.90
2018-08-28T05:57:15.468Z,15.90
2018-08-28T05:58:21.018Z,15.90
2018-08-28T05:59:26.542Z,15.90
2018-08-28T06:00:32.037Z,16.00
2018-08-28T06:01:37.409Z,16.00
2018-08-28T06:02:42.808Z,16.10
2018-08-28T06:03:48.269Z,16.00
2018-08-28T06:04:53.714Z,16.00
2018-08-28T06:05:59.157Z,16.00
2018-08-28T06:07:04.636Z,16.10
2018-08-28T06:08:10.454Z,16.00
2018-08-28T06:09:15.973Z,16.00
2018-08-28T06:10:21.464Z,16.00
2018-08-28T06:11:27.265Z,16.10
2018-08-28T06:12:33.074Z,16.10
2018-08-28T06:13:38.760Z,16.20
2018-08-28T06:14:44.249Z,16.30
2018-08-28T06:15:49.702Z,16.20
2018-08-28T06:16:55.110Z,16.30
2018-08-28T06:18:00.585Z,16.30
2018-08-28T06:19:06.405Z,16.30
2018-08-28T06:20:11.957Z,16.30
2018-08-28T06:21:17.433Z,16.30
2018-08-28T06:22:22.994Z,16.50
2018-08-28T06:23:28.419Z,16.50
2018-08-28T06:24:33.909Z,16.60
2018-08-28T06:25:39.342Z,16.60
2018-08-28T06:26:44.740Z,16.70
2018-08-28T06:27:50.649Z,16.60
2018-08-28T06:28:56.085Z,16.70
2018-08-28T06:30:01.612Z,16.70
2018-08-28T06:31:07.170Z,16.80
2018-08-28T06:32:12.581Z,16.80
2018-08-28T06:33:18.090Z,16.80
2018-08-28T06:34:23.490Z,16.80
2018-08-28T06:35:29.033Z,16.90
2018-08-28T06:36:34.485Z,16.90
2018-08-28T06:37:39.954Z,16.90
2018-08-28T06:38:45.404Z,16.90
2018-08-28T06:39:50.893Z,17.00
2018-08-28T06:40:56.289Z,17.00
2018-08-28T06:42:01.686Z,17.00
2018-08-28T06:43:07.157Z,17.10
2018-08-28T06:44:12.993Z,17.00
2018-08-28T06:45:18.643Z,17.10
2018-08-28T06:46:24.081Z,17.00
2018-08-28T06:47:29.509Z,17.10
2018-08-28T06:48:34.934Z,17.20
2018-08-28T06:49:40.466Z,17.10
2018-08-28T06:50:45.774Z,17.30
2018-08-28T06:51:51.233Z,17.20
2018-08-28T06:52:56.632Z,17.30
2018-08-28T06:54:02.093Z,17.30
2018-08-28T06:55:08.023Z,17.40
2018-08-28T06:56:13.492Z,17.40
2018-08-28T06:57:18.904Z,17.50
2018-08-28T06:58:24.313Z,17.60
2018-08-28T06:59:29.837Z,17.60
2018-08-28T07:00:35.309Z,17.60
2018-08-28T07:01:40.853Z,17.70
2018-08-28T07:02:46.345Z,17.70
2018-08-28T07:03:51.805Z,17.80
2018-08-28T07:04:57.598Z,17.80
2018-08-28T07:06:03.130Z,17.90
2018-08-28T07:07:08.785Z,17.90
2018-08-28T07:08:14.340Z,17.90
2018-08-28T07:09:19.899Z,18.10
2018-08-28T07:10:25.365Z,18.00
2018-08-28T07:11:30.934Z,18.00
2018-08-28T07:12:36.489Z,18.10
2018-08-28T07:13:41.876Z,18.20
2018-08-28T07:14:47.298Z,18.20
2018-08-28T07:15:52.744Z,18.20
2018-08-28T07:16:58.393Z,18.30
2018-08-28T07:18:03.825Z,18.20
2018-08-28T07:19:09.237Z,18.30
2018-08-28T07:20:14.678Z,18.30
2018-08-28T07:21:20.173Z,18.30
2018-08-28T07:22:26.548Z,18.30
2018-08-28T07:23:32.005Z,18.40
2018-08-28T07:24:37.454Z,18.40
2018-08-28T07:25:43.152Z,18.50
2018-08-28T07:26:48.608Z,18.60
2018-08-28T07:27:54.553Z,18.70
2018-08-28T07:28:59.997Z,18.80
2018-08-28T07:30:05.749Z,19.00
2018-08-28T07:31:11.228Z,19.00
2018-08-28T07:32:16.650Z,19.10
2018-08-28T07:33:22.104Z,19.10
2018-08-28T07:34:27.617Z,19.20
2018-08-28T07:35:33.338Z,19.30
2018-08-28T07:36:38.821Z,19.20
2018-08-28T07:37:44.288Z,19.30
2018-08-28T07:38:49.726Z,19.40
2018-08-28T07:39:55.173Z,19.30
2018-08-28T07:41:00.673Z,19.40
2018-08-28T07:42:06.164Z,19.50
2018-08-28T07:43:11.579Z,19.50
2018-08-28T07:44:17.025Z,19.60
2018-08-28T07:45:22.508Z,19.50
2018-08-28T07:46:27.938Z,19.40
2018-08-28T07:47:33.413Z,19.50
2018-08-28T07:48:38.819Z,19.30
2018-08-28T07:49:44.270Z,19.30
2018-08-28T07:50:49.681Z,19.50
2018-08-28T07:51:55.101Z,19.60
2018-08-28T07:53:00.607Z,19.60
2018-08-28T07:54:05.980Z,19.60
2018-08-28T07:55:11.464Z,19.60
2018-08-28T07:56:16.898Z,19.70
2018-08-28T07:57:22.388Z,19.70
2018-08-28T07:58:27.860Z,19.80
2018-08-28T07:59:33.243Z,19.70
2018-08-28T08:00:38.637Z,19.90
2018-08-28T08:01:44.063Z,20.00
2018-08-28T08:02:49.184Z,20.00
2018-08-28T08:03:54.626Z,20.10
2018-08-28T08:05:01.175Z,20.00
2018-08-28T08:06:06.796Z,19.90
2018-08-28T08:07:12.225Z,19.90
2018-08-28T08:08:17.891Z,20.00
2018-08-28T08:09:23.700Z,19.80
2018-08-28T08:10:29.155Z,19.90
2018-08-28T08:11:34.614Z,20.00
2018-08-28T08:12:40.041Z,20.00
2018-08-28T08:13:45.452Z,19.90
2018-08-28T08:14:50.969Z,19.90
2018-08-28T08:15:56.401Z,20.00
2018-08-28T08:17:01.918Z,20.10
2018-08-28T08:18:07.466Z,20.20
2018-08-28T08:19:12.891Z,20.20
2018-08-28T08:20:18.285Z,20.20
2018-08-28T08:21:23.758Z,20.50
2018-08-28T08:22:29.157Z,20.40
2018-08-28T08:23:34.544Z,20.40
2018-08-28T08:24:40.101Z,20.30
2018-08-28T08:25:45.591Z,20.00
2018-08-28T08:26:51.028Z,20.00
2018-08-28T08:27:56.518Z,19.90
2018-08-28T08:29:01.936Z,20.00
2018-08-28T08:30:08.284Z,20.20
2018-08-28T08:31:13.677Z,20.20
2018-08-28T08:32:19.102Z,20.20
2018-08-28T08:33:24.561Z,20.30
2018-08-28T08:34:30.914Z,20.50
2018-08-28T08:35:36.486Z,20.30
2018-08-28T08:36:42.018Z,20.40
2018-08-28T08:37:47.476Z,20.40
2018-08-28T08:38:52.894Z,20.40
2018-08-28T08:39:58.470Z,20.40
2018-08-28T08:41:03.938Z,20.40
2018-08-28T08:42:09.466Z,20.40
2018-08-28T08:43:14.829Z,20.50
2018-08-28T08:44:20.405Z,20.70
2018-08-28T08:45:25.829Z,20.70
2018-08-28T08:46:31.349Z,20.90
2018-08-28T08:47:36.905Z,21.00
2018-08-28T08:48:42.310Z,20.90
2018-08-28T08:49:47.772Z,20.90
2018-08-28T08:50:53.200Z,21.10
2018-08-28T08:51:58.712Z,20.90
2018-08-28T08:53:04.276Z,20.90
2018-08-28T08:54:09.795Z,20.90
2018-08-28T08:55:15.300Z,20.90
2018-08-28T08:56:20.746Z,20.80
2018-08-28T08:57:26.144Z,20.70
2018-08-28T08:58:31.683Z,20.90
2018-08-28T08:59:37.127Z,20.90
2018-08-28T09:00:42.648Z,21.00
2018-08-28T09:01:48.187Z,20.90
2018-08-28T09:02:53.779Z,20.80
2018-08-28T09:03:59.209Z,20.90
2018-08-28T09:05:04.742Z,21.00
2018-08-28T09:06:10.370Z,21.10
2018-08-28T09:07:15.736Z,21.20
2018-08-28T09:08:21.222Z,21.30
2018-08-28T09:09:26.674Z,21.10
2018-08-28T09:10:32.101Z,21.00
2018-08-28T09:11:37.667Z,21.10
2018-08-28T09:12:43.092Z,20.90
2018-08-28T09:13:48.645Z,21.00
2018-08-28T09:14:54.336Z,21.10
2018-08-28T09:15:59.764Z,21.00
2018-08-28T09:17:05.206Z,21.10
2018-08-28T09:18:10.684Z,21.20
2018-08-28T09:19:16.201Z,21.30
2018-08-28T09:20:21.646Z,21.30
2018-08-28T09:21:27.042Z,21.20
2018-08-28T09:22:32.607Z,21.30
2018-08-28T09:23:38.081Z,21.40
2018-08-28T09:24:43.612Z,21.50
2018-08-28T09:25:49.068Z,21.50
2018-08-28T09:26:54.553Z,21.60
2018-08-28T09:27:59.999Z,21.60
2018-08-28T09:29:05.447Z,21.80
2018-08-28T09:30:11.097Z,21.70
2018-08-28T09:31:16.631Z,21.70
2018-08-28T09:32:22.071Z,21.80
2018-08-28T09:33:27.475Z,21.80
2018-08-28T09:34:33.121Z,21.90
2018-08-28T09:35:38.531Z,22.00
2018-08-28T09:36:44.023Z,21.70
2018-08-28T09:37:49.424Z,21.70
2018-08-28T09:38:54.908Z,21.80
2018-08-28T09:40:00.440Z,21.80
2018-08-28T09:41:05.901Z,21.90
2018-08-28T09:42:11.442Z,21.70
2018-08-28T09:43:16.861Z,21.70
2018-08-28T09:44:22.317Z,21.80
2018-08-28T09:45:27.843Z,21.90
2018-08-28T09:46:33.246Z,22.00
2018-08-28T09:47:38.727Z,22.00
2018-08-28T09:48:44.086Z,22.00
2018-08-28T09:49:49.592Z,21.90
2018-08-28T09:50:54.986Z,22.10
2018-08-28T09:52:00.729Z,22.00
2018-08-28T09:53:06.233Z,22.00
2018-08-28T09:54:11.771Z,21.90
2018-08-28T09:55:17.194Z,21.70
2018-08-28T09:56:22.640Z,21.70
2018-08-28T09:57:28.170Z,21.80
2018-08-28T09:58:33.610Z,21.90
2018-08-28T09:59:39.653Z,21.80
2018-08-28T10:00:50.266Z,21.90
2018-08-28T10:01:55.632Z,21.90
2018-08-28T10:03:01.106Z,22.00
2018-08-28T10:04:06.575Z,22.00
2018-08-28T10:05:12.060Z,22.20
2018-08-28T10:06:17.444Z,22.20
2018-08-28T10:07:22.909Z,22.30
2018-08-28T10:08:28.439Z,22.30
2018-08-28T10:09:33.938Z,22.30
2018-08-28T10:10:39.341Z,22.20
2018-08-28T10:11:44.954Z,22.00
2018-08-28T10:12:50.399Z,22.10
2018-08-28T10:13:55.887Z,22.00
2018-08-28T10:15:01.361Z,22.10
2018-08-28T10:16:06.861Z,22.20
2018-08-28T10:17:12.251Z,22.30
2018-08-28T10:18:17.785Z,22.50
2018-08-28T10:19:23.305Z,22.50
2018-08-28T10:20:29.047Z,22.40
2018-08-28T10:21:34.894Z,22.40
2018-08-28T10:22:40.700Z,22.40
2018-08-28T10:23:46.238Z,22.30
2018-08-28T10:24:51.865Z,22.30
2018-08-28T10:25:57.266Z,22.30
2018-08-28T10:27:02.713Z,22.40
2018-08-28T10:28:08.305Z,22.40
2018-08-28T10:29:13.736Z,22.50
2018-08-28T10:30:19.275Z,22.60
2018-08-28T10:31:24.803Z,22.60
2018-08-28T10:32:30.207Z,22.60
2018-08-28T10:33:35.640Z,22.60
2018-08-28T10:34:41.044Z,22.70
2018-08-28T10:35:46.501Z,22.70
2018-08-28T10:36:51.887Z,22.80
2018-08-28T10:37:57.614Z,22.90
2018-08-28T10:39:03.234Z,22.80
2018-08-28T10:40:10.008Z,22.70
2018-08-28T10:41:15.590Z,22.80
2018-08-28T10:42:21.033Z,22.90
2018-08-28T10:43:26.446Z,23.00
2018-08-28T10:44:32.036Z,22.90
2018-08-28T10:45:37.513Z,22.90
2018-08-28T10:46:43.166Z,22.90
2018-08-28T10:47:48.449Z,22.90
2018-08-28T16:13:02.742Z,22.90
2018-08-28T16:17:25.288Z,22.80
2018-08-28T16:21:55.152Z,22.70
2018-08-28T16:36:13.785Z,22.90
2018-08-28T16:37:19.442Z,22.80
2018-08-28T16:38:25.001Z,22.70
2018-08-28T16:46:04.388Z,22.30
2018-08-28T16:48:15.236Z,22.20
2018-08-28T16:49:20.685Z,22.20
2018-08-28T16:50:26.085Z,22.20
2018-08-28T16:55:52.967Z,22.10
2018-08-28T16:58:03.674Z,22.10
2018-08-28T17:00:14.248Z,22.30
2018-08-28T17:04:36.709Z,21.90
2018-08-28T17:05:42.223Z,22.00
2018-08-28T17:06:47.678Z,21.90
2018-08-28T17:12:16.000Z,21.80
2018-08-28T17:17:42.603Z,21.50
2018-08-28T17:20:58.445Z,21.30
2018-08-28T17:22:04.002Z,21.20
2018-08-28T17:23:09.693Z,21.20
2018-08-28T17:24:15.112Z,21.10
2018-08-28T17:26:26.285Z,20.90
2018-08-28T17:27:31.729Z,20.90
2018-08-28T17:28:37.152Z,20.90
2018-08-28T17:30:49.653Z,20.80
2018-08-28T17:35:19.073Z,20.70
2018-08-28T17:36:24.592Z,20.50
2018-08-28T17:37:30.238Z,20.40
2018-08-28T17:38:35.942Z,20.50
2018-08-28T17:39:41.577Z,20.60
2018-08-28T17:40:47.016Z,20.30
2018-08-28T17:41:54.096Z,20.30
2018-08-28T17:43:05.512Z,20.20
2018-08-28T17:44:11.462Z,20.30
2018-08-28T17:45:17.027Z,20.10
2018-08-28T17:46:22.740Z,20.20
2018-08-28T17:47:28.206Z,20.20
2018-08-28T17:48:33.641Z,20.10
2018-08-28T17:49:39.124Z,20.10
2018-08-28T17:50:44.749Z,20.10
2018-08-28T17:51:50.306Z,20.00
2018-08-28T17:52:55.957Z,20.00
2018-08-28T17:54:01.910Z,19.90
2018-08-28T17:55:08.044Z,20.00
2018-08-28T17:56:13.558Z,19.90
2018-08-28T17:57:19.048Z,19.90
2018-08-28T17:58:24.605Z,19.90
2018-08-28T17:59:30.180Z,19.80
2018-08-28T18:00:35.691Z,19.80
2018-08-28T18:01:41.238Z,19.80
2018-08-28T18:02:46.709Z,19.80
2018-08-28T18:03:52.355Z,19.70
2018-08-28T18:04:57.883Z,19.80
2018-08-28T18:06:03.550Z,19.70
2018-08-28T18:07:08.977Z,19.70
2018-08-28T18:08:14.482Z,19.50
2018-08-28T18:09:20.027Z,19.50
2018-08-28T18:10:25.534Z,19.50
2018-08-28T18:11:31.091Z,19.50
2018-08-28T18:12:36.533Z,19.50
2018-08-28T18:13:42.017Z,19.50
2018-08-28T18:14:47.590Z,19.50
2018-08-28T18:15:53.034Z,19.40
2018-08-28T18:16:58.553Z,19.50
2018-08-28T18:18:04.277Z,19.30
2018-08-28T18:19:09.971Z,19.20
2018-08-28T18:20:15.674Z,19.10
2018-08-28T18:21:21.276Z,19.10
2018-08-28T18:22:27.115Z,19.30
2018-08-28T18:23:32.860Z,19.20
2018-08-28T18:24:38.450Z,19.20
2018-08-28T18:25:44.053Z,19.10
2018-08-28T18:26:49.758Z,19.10
2018-08-28T18:27:55.186Z,19.00
2018-08-28T18:29:00.816Z,19.00
2018-08-28T18:30:07.214Z,18.90
2018-08-28T18:31:12.705Z,18.90
2018-08-28T18:32:18.214Z,19.00
2018-08-28T18:33:23.725Z,18.80
2018-08-28T18:34:29.226Z,18.80
2018-08-28T18:35:34.909Z,18.60
2018-08-28T18:36:40.442Z,18.70
2018-08-28T18:37:46.297Z,18.70
2018-08-28T18:38:52.117Z,18.60
2018-08-28T18:39:57.581Z,18.60
2018-08-28T18:41:03.186Z,18.60
2018-08-28T18:42:08.934Z,18.60
2018-08-28T18:43:14.614Z,18.50
2018-08-28T18:44:20.317Z,18.60
2018-08-28T18:45:26.173Z,18.30
2018-08-28T18:46:38.362Z,18.40
2018-08-28T18:47:44.031Z,18.30
2018-08-28T18:48:50.000Z,18.30
2018-08-28T18:49:55.850Z,18.40
2018-08-28T18:51:01.827Z,18.40
2018-08-28T18:52:09.158Z,18.20
2018-08-28T18:53:15.005Z,18.10
2018-08-28T18:54:20.617Z,18.10
2018-08-28T18:55:26.213Z,18.20
2018-08-28T18:56:31.772Z,18.30
2018-08-28T18:57:37.664Z,18.10
2018-08-28T18:58:43.560Z,18.10
2018-08-28T18:59:49.297Z,18.20
2018-08-28T19:00:57.701Z,18.10
2018-08-28T19:02:04.171Z,18.10
2018-08-28T19:03:10.015Z,18.20
2018-08-28T19:04:15.932Z,18.00
2018-08-28T19:05:21.890Z,18.00
2018-08-28T19:06:27.682Z,18.00
2018-08-28T19:07:33.621Z,18.00
2018-08-28T19:08:39.808Z,18.10
2018-08-28T19:09:45.918Z,18.00
2018-08-28T19:10:52.532Z,18.00
2018-08-28T19:11:58.853Z,18.00
2018-08-28T19:13:05.454Z,17.90
2018-08-28T19:14:13.466Z,17.80
2018-08-28T19:15:20.414Z,17.90
2018-08-28T19:16:26.694Z,17.90
2018-08-28T19:17:32.800Z,17.90
2018-08-28T19:18:38.500Z,18.10
2018-08-28T19:19:44.652Z,18.00
2018-08-28T19:20:51.046Z,17.90
2018-08-28T19:21:57.590Z,17.90
2018-08-28T19:23:03.508Z,17.90
2018-08-28T19:24:10.040Z,17.90
2018-08-28T19:25:16.786Z,17.70
2018-08-28T19:26:23.009Z,17.70
2018-08-28T19:27:29.158Z,17.60
2018-08-28T19:28:35.774Z,17.70
2018-08-28T19:29:42.290Z,17.60
2018-08-28T19:30:48.417Z,17.70
2018-08-28T19:31:54.387Z,17.60
2018-08-28T19:33:00.301Z,17.60
2018-08-28T19:34:06.455Z,17.50
2018-08-28T19:35:12.777Z,17.60
2018-08-28T19:36:18.548Z,17.50
2018-08-28T19:37:24.345Z,17.60
2018-08-28T19:38:30.180Z,17.70
2018-08-28T19:39:36.394Z,17.60
2018-08-28T19:40:42.890Z,17.60
2018-08-28T19:41:49.856Z,17.60
2018-08-28T19:42:58.385Z,17.60
2018-08-28T19:44:04.767Z,17.70
2018-08-28T19:45:10.725Z,17.60
2018-08-28T19:46:16.398Z,17.70
2018-08-28T19:47:22.064Z,17.60
2018-08-28T19:48:27.694Z,17.50
2018-08-28T19:49:35.269Z,17.40
2018-08-28T19:50:49.753Z,17.50
2018-08-28T19:51:56.114Z,17.40
2018-08-28T19:53:01.766Z,17.40
2018-08-28T19:54:07.647Z,17.30
2018-08-28T19:55:13.253Z,17.30
2018-08-28T19:56:20.330Z,17.40
2018-08-28T19:57:25.992Z,17.30
2018-08-28T19:58:31.584Z,17.20
2018-08-28T19:59:37.085Z,17.20
2018-08-28T20:00:42.602Z,17.10
2018-08-28T20:01:48.553Z,17.10
2018-08-28T20:02:55.141Z,17.20
2018-08-28T20:04:00.828Z,17.10
2018-08-28T20:05:06.456Z,17.10
2018-08-28T20:06:12.224Z,17.00
2018-08-28T20:07:17.814Z,17.00
2018-08-28T20:08:23.843Z,17.10
2018-08-28T20:09:29.357Z,17.00
2018-08-28T20:10:34.777Z,17.10
2018-08-28T20:11:40.246Z,17.10
2018-08-28T20:12:46.126Z,17.00
2018-08-28T20:13:51.788Z,17.10
2018-08-28T20:14:57.652Z,16.80
2018-08-28T20:16:03.340Z,16.90
2018-08-28T20:17:09.260Z,16.80
2018-08-28T20:18:18.142Z,16.80
2018-08-28T20:19:23.784Z,16.80
2018-08-28T20:20:29.205Z,16.70
2018-08-28T20:21:34.681Z,16.70
2018-08-28T20:22:40.608Z,16.70
2018-08-28T20:23:46.145Z,16.60
2018-08-28T20:24:51.733Z,16.70